Rawlins, WY

2:49 AM MDT on July 26, 2016 (GMT -0600)
Rawlins Municipal | | Change Station

Elev 6814 ft 41.81 °N, 107.20 °W | Updated 56 minutes ago

Clear
Clear
69 °F
Feels Like 69 °F
N
8
Wind Variable Wind from WSW

Today
High -- | Low -- °F
--% Chance of Precip.
Yesterday
High -- | Low -- °F
Precip. -- in
Pressure 29.89 in
Visibility 10.0 miles
Clouds Clear
Dew Point 28 °F
Humidity 22%
Rainfall 0.00 in
Snow Depth Not available.
5:57 AM 8:32 PM
Waning Gibbous, 57% visible
METAR KRWL 260753Z AUTO 24007KT 10SM CLR 21/M02 A3025 RMK AO2 SLP121 T02061022
Pressure 29.89 in
Visibility 10.0 miles
Clouds Clear
Dew Point 28 °F
Humidity 22%
Rainfall 0.00 in
Snow Depth Not available.
5:57 AM 8:32 PM
Waning Gibbous, 57% visible
METAR KRWL 260753Z AUTO 24007KT 10SM CLR 21/M02 A3025 RMK AO2 SLP121 T02061022

10-Day Weather Forecast

Almanac

Astronomy

Jul. 26, 2016 Rise Set
Actual Time
Civil Twilight
Nautical Twilight
Astronomical Twilight
Moon
Length of Visible Light
Length of Day
Tomorrow will be .
, % of the Moon is Illuminated

Today's Extremes

State Highs State Lows

Community

WunderPhotos

Upload Photos

1,927,556 photos uploaded!

WunderBlog® & News

Nearby

Air Quality

  Air Quality AQ Index Pollutant
Not available.

Snow Depth

Station Depth Elevation

Earthquake Activity

City Distance Mag. Time & Date
Minimum magnitude displayed is 2.5.

Coastal Water Temperatures

Place Temperature

Stations

Nearby Weather Stations

Station Location Temp. Windchill Dew Point Humidity Wind Precip. Elev Updated Type
                   

Watches & Warnings

There are currently no watches in effect.